Terminal Aerodrome Forecast
Issued by NWS

Home | Current Version | Previous Version | Graphics & Text | Print | Product List | Glossary On
Versions: 1 2 3 4 5 6 7 8 9 10 11 12 13 14 15 16
000
FTUS43 KMPX 221100
TAFRWF
TAF
KRWF 221120Z 2212/2312 31006KT P6SM SKC
     FM221500 06006KT P6SM SCT250
     FM222100 12007KT P6SM BKN200
     FM230600 13009KT P6SM BKN080 OVC120=

USA.gov is the U.S. government's official web portal to all federal, state and local government web resources and services.